Time;durP1;ratioP1;P1;durP2;ratioP2;P2;SDS_P1;SDS_P2;PMS_P1;PMS_P2;Temp;Humidity;BMP_temperature;BMP_pressure;BME280_temperature;BME280_humidity;BME280_pressure;Samples;Min_cycle;Max_cycle;Signal;HPM_P1;HPM_P2
2023/12/24 00:01:05;;;;;;;16.73;9.65;;;;;;;;;;5011179;28;20373;-81
2023/12/24 00:03:30;;;;;;;;;;;;;;;;;;5034115;28;20032;-80
2023/12/24 00:05:55;;;;;;;16.40;10.07;;;;;;;;;;5020601;28;19920;-81
2023/12/24 00:08:21;;;;;;;;;;;;;;;;;;5015721;28;20049;-80
2023/12/24 00:10:46;;;;;;;19.70;10.25;;;;;;;;;;5015734;28;19932;-80
2023/12/24 00:13:12;;;;;;;13.63;8.38;;;;;;;;;;5033522;28;20140;-81
2023/12/24 00:15:37;;;;;;;;;;;;;;;;;;5033648;28;20451;-81
2023/12/24 00:18:03;;;;;;;13.55;9.65;;;;;;;;;;5022749;28;19917;-81
2023/12/24 00:20:28;;;;;;;;;;;;;;;;;;5017911;28;20044;-80
2023/12/24 00:23:04;;;;;;;18.33;10.77;;;;;;;;;;4983879;28;19910;-80
2023/12/24 00:25:29;;;;;;;15.13;9.25;;;;;;;;;;5009593;28;20049;-80
2023/12/24 00:27:55;;;;;;;15.45;9.65;;;;;;;;;;4985827;28;20118;-80
2023/12/24 00:30:20;;;;;;;18.33;9.55;;;;;;;;;;5014590;28;20052;-82
2023/12/24 00:32:46;;;;;;;;;;;;;;;;;;5015756;28;20115;-79
2023/12/24 00:35:11;;;;;;;17.88;10.32;;;;;;;;;;5005245;28;20428;-81
2023/12/24 00:37:38;;;;;;;16.77;10.07;;;;;;;;;;4992241;28;20022;-78
2023/12/24 00:40:03;;;;;;;;;;;;;;;;;;5033274;28;20063;-79
2023/12/24 00:42:29;;;;;;;15.73;9.80;;;;;;;;;;5033074;28;19909;-80
2023/12/24 00:44:54;;;;;;;17.10;9.95;;;;;;;;;;5030391;28;20140;-79
2023/12/24 00:47:20;;;;;;;16.45;9.73;;;;;;;;;;5008515;28;20029;-79
2023/12/24 00:49:45;;;;;;;15.27;10.00;;;;;;;;;;5024414;28;20037;-80
2023/12/24 00:52:11;;;;;;;15.48;9.60;;;;;;;;;;5008924;28;20037;-80
2023/12/24 00:54:37;;;;;;;;;;;;;;;;;;5029843;28;20425;-79
2023/12/24 00:57:02;;;;;;;17.98;11.05;;;;;;;;;;4999981;28;19949;-80
2023/12/24 00:59:28;;;;;;;18.65;10.32;;;;;;;;;;5013175;28;20065;-80
2023/12/24 01:01:53;;;;;;;14.88;10.05;;;;;;;;;;5008352;28;20503;-79
2023/12/24 01:04:19;;;;;;;15.73;9.73;;;;;;;;;;5026770;28;20036;-80
2023/12/24 01:06:44;;;;;;;16.60;10.00;;;;;;;;;;5007392;28;20120;-81
2023/12/24 01:09:10;;;;;;;17.08;10.95;;;;;;;;;;5032023;28;20056;-80
2023/12/24 01:11:35;;;;;;;19.73;11.13;;;;;;;;;;4980875;28;20045;-80
2023/12/24 01:14:01;;;;;;;16.27;10.48;;;;;;;;;;5019591;28;20561;-81
2023/12/24 01:16:26;;;;;;;19.10;10.63;;;;;;;;;;5014592;28;20029;-80
2023/12/24 01:18:52;;;;;;;16.20;10.55;;;;;;;;;;5002236;28;20048;-80
2023/12/24 01:21:17;;;;;;;;;;;;;;;;;;5014770;28;20037;-81
2023/12/24 01:23:42;;;;;;;16.08;9.90;;;;;;;;;;5009821;28;20011;-81
2023/12/24 01:26:08;;;;;;;18.10;10.82;;;;;;;;;;5010837;28;20032;-80
2023/12/24 01:28:34;;;;;;;18.83;11.00;;;;;;;;;;4997622;28;20041;-80
2023/12/24 01:31:00;;;;;;;;;;;;;;;;;;4995037;28;20072;-80
2023/12/24 01:33:44;;;;;;;16.23;10.75;;;;;;;;;;5023497;28;19978;-80
2023/12/24 01:36:10;;;;;;;;;;;;;;;;;;5019986;28;20049;-79
2023/12/24 01:38:35;;;;;;;18.77;10.45;;;;;;;;;;4986323;28;19909;-80
2023/12/24 01:41:01;;;;;;;19.10;11.05;;;;;;;;;;5001960;28;20059;-80
2023/12/24 01:43:26;;;;;;;19.50;12.38;;;;;;;;;;4990735;28;20045;-79
2023/12/24 01:45:52;;;;;;;;;;;;;;;;;;5018504;28;20072;-80
2023/12/24 01:48:18;;;;;;;16.35;10.63;;;;;;;;;;5019064;28;19913;-80
2023/12/24 01:50:43;;;;;;;18.30;9.85;;;;;;;;;;5002307;28;20405;-80
2023/12/24 01:53:09;;;;;;;16.10;9.75;;;;;;;;;;5017654;28;20518;-80
2023/12/24 01:55:34;;;;;;;18.13;10.50;;;;;;;;;;5007089;28;20038;-80
2023/12/24 01:58:00;;;;;;;17.58;10.15;;;;;;;;;;5013869;28;20040;-80
2023/12/24 02:00:25;;;;;;;15.23;9.27;;;;;;;;;;4997645;28;20033;-80
2023/12/24 02:02:51;;;;;;;15.10;9.15;;;;;;;;;;5014003;28;20491;-80
2023/12/24 02:05:16;;;;;;;15.65;9.32;;;;;;;;;;5017785;28;20036;-80
2023/12/24 02:07:42;;;;;;;14.05;9.90;;;;;;;;;;5017619;28;20033;-80
2023/12/24 02:10:08;;;;;;;14.77;9.50;;;;;;;;;;5001219;28;20555;-81
2023/12/24 02:12:34;;;;;;;16.38;9.15;;;;;;;;;;4994990;28;20041;-80
2023/12/24 02:15:00;;;;;;;13.20;9.43;;;;;;;;;;5011370;28;20037;-80
2023/12/24 02:17:27;;;;;;;16.63;9.43;;;;;;;;;;5000765;28;20032;-80
2023/12/24 02:19:53;;;;;;;;;;;;;;;;;;5001762;28;20120;-80
2023/12/24 02:22:18;;;;;;;15.38;9.40;;;;;;;;;;5035254;28;19916;-80
2023/12/24 02:24:44;;;;;;;13.38;8.60;;;;;;;;;;5035236;28;20056;-80
2023/12/24 02:27:12;;;;;;;16.77;9.30;;;;;;;;;;4998746;28;20040;-80
2023/12/24 02:29:40;;;;;;;14.82;8.88;;;;;;;;;;4999703;28;20076;-80
2023/12/24 02:32:07;;;;;;;14.43;8.63;;;;;;;;;;5012109;28;20044;-81
2023/12/24 02:34:33;;;;;;;13.55;8.43;;;;;;;;;;5009811;28;20067;-80
2023/12/24 02:37:00;;;;;;;24.20;15.02;;;;;;;;;;5016724;28;20028;-81
2023/12/24 02:39:25;;;;;;;;;;;;;;;;;;5012802;28;20041;-79
2023/12/24 02:41:50;;;;;;;12.35;7.85;;;;;;;;;;5017725;28;20086;-80
2023/12/24 02:44:16;;;;;;;13.00;8.35;;;;;;;;;;4989486;28;20030;-80
2023/12/24 02:46:41;;;;;;;;;;;;;;;;;;5000052;28;20021;-80
2023/12/24 02:49:07;;;;;;;12.80;7.60;;;;;;;;;;5034485;28;20376;-79
2023/12/24 02:51:32;;;;;;;;;;;;;;;;;;5013382;28;20025;-80
2023/12/24 02:53:58;;;;;;;11.85;7.25;;;;;;;;;;5009112;28;20418;-80
2023/12/24 02:56:23;;;;;;;10.88;6.97;;;;;;;;;;5005628;28;20120;-80
2023/12/24 02:58:48;;;;;;;;;;;;;;;;;;5007661;28;20112;-79
2023/12/24 03:01:14;;;;;;;11.82;7.45;;;;;;;;;;4999959;28;19920;-80
2023/12/24 03:04:05;;;;;;;13.25;7.82;;;;;;;;;;5017758;28;20072;-81
2023/12/24 03:06:30;;;;;;;;;;;;;;;;;;4994294;28;20065;-80
2023/12/24 03:08:56;;;;;;;11.88;7.57;;;;;;;;;;5029092;28;19909;-80
2023/12/24 03:11:21;;;;;;;11.70;7.15;;;;;;;;;;5029088;28;20124;-80
2023/12/24 03:13:47;;;;;;;11.73;8.10;;;;;;;;;;4986339;28;20034;-78
2023/12/24 03:16:13;;;;;;;16.52;8.98;;;;;;;;;;5001860;28;20396;-80
2023/12/24 03:18:38;;;;;;;;;;;;;;;;;;4993753;28;20440;-80
2023/12/24 03:21:04;;;;;;;14.40;8.90;;;;;;;;;;5012062;28;19917;-80
2023/12/24 03:23:31;;;;;;;10.98;7.13;;;;;;;;;;5003699;28;20032;-80
2023/12/24 03:25:57;;;;;;;;;;;;;;;;;;5017825;28;20523;-80
2023/12/24 03:28:22;;;;;;;13.60;7.93;;;;;;;;;;5017120;28;19945;-81
2023/12/24 03:30:48;;;;;;;;;;;;;;;;;;5026208;28;20048;-79
2023/12/24 03:33:13;;;;;;;11.63;7.43;;;;;;;;;;5032263;28;20004;-80
2023/12/24 03:35:39;;;;;;;11.57;7.38;;;;;;;;;;5017274;28;20068;-80
2023/12/24 03:38:04;;;;;;;;;;;;;;;;;;4997611;28;20072;-80
2023/12/24 03:40:30;;;;;;;14.95;8.18;;;;;;;;;;5014827;28;20370;-80
2023/12/24 03:42:55;;;;;;;12.75;8.30;;;;;;;;;;4998344;28;20033;-79
2023/12/24 03:45:21;;;;;;;;;;;;;;;;;;4996942;28;20033;-79
2023/12/24 03:47:46;;;;;;;14.00;8.20;;;;;;;;;;5011220;28;19955;-79
2023/12/24 03:50:11;;;;;;;;;;;;;;;;;;5021541;28;20032;-80
2023/12/24 03:52:37;;;;;;;17.73;7.95;;;;;;;;;;5018575;28;20280;-80
2023/12/24 03:55:03;;;;;;;12.70;7.53;;;;;;;;;;5005073;28;20034;-81
2023/12/24 03:57:28;;;;;;;13.10;8.27;;;;;;;;;;5024225;28;20493;-81
2023/12/24 03:59:54;;;;;;;12.20;8.27;;;;;;;;;;4989472;28;20029;-81
2023/12/24 04:02:19;;;;;;;14.25;8.50;;;;;;;;;;5015768;28;20469;-81
2023/12/24 04:04:46;;;;;;;;;;;;;;;;;;5006059;28;20174;-80
2023/12/24 04:07:11;;;;;;;13.85;7.93;;;;;;;;;;5002661;28;20328;-81
2023/12/24 04:09:37;;;;;;;;;;;;;;;;;;4994587;28;20128;-80
2023/12/24 04:12:02;;;;;;;14.20;8.48;;;;;;;;;;5006401;28;19914;-80
2023/12/24 04:14:28;;;;;;;13.98;7.97;;;;;;;;;;4985784;28;20049;-80
2023/12/24 04:16:53;;;;;;;14.73;8.32;;;;;;;;;;5007037;28;20034;-80
2023/12/24 04:19:19;;;;;;;13.23;8.05;;;;;;;;;;5005476;28;20168;-80
2023/12/24 04:21:45;;;;;;;;;;;;;;;;;;5007590;28;20385;-80
2023/12/24 04:24:10;;;;;;;12.82;7.93;;;;;;;;;;5018842;28;19913;-80
2023/12/24 04:26:36;;;;;;;14.32;8.02;;;;;;;;;;4984821;28;20782;-79
2023/12/24 04:29:03;;;;;;;14.52;8.63;;;;;;;;;;4990191;28;20033;-79
2023/12/24 04:31:29;;;;;;;14.20;9.02;;;;;;;;;;4992330;28;20030;-80
2023/12/24 04:33:56;;;;;;;13.52;7.80;;;;;;;;;;5006795;28;20401;-80
2023/12/24 04:36:22;;;;;;;;;;;;;;;;;;4996545;28;20040;-80
2023/12/24 04:38:47;;;;;;;13.13;8.10;;;;;;;;;;4999661;28;19913;-80
2023/12/24 04:41:13;;;;;;;;;;;;;;;;;;4987174;28;20022;-80
2023/12/24 04:43:40;;;;;;;14.88;8.95;;;;;;;;;;5002078;28;19931;-81
2023/12/24 04:46:07;;;;;;;;;;;;;;;;;;4995705;28;20120;-81
2023/12/24 04:48:33;;;;;;;13.93;8.70;;;;;;;;;;5007926;28;19913;-81
2023/12/24 04:50:58;;;;;;;;;;;;;;;;;;4997583;28;20133;-80
2023/12/24 04:53:23;;;;;;;16.67;9.23;;;;;;;;;;5011256;28;19967;-80
2023/12/24 04:55:49;;;;;;;14.55;8.98;;;;;;;;;;5003753;28;20077;-80
2023/12/24 04:58:15;;;;;;;14.80;8.63;;;;;;;;;;5004581;28;20396;-79
2023/12/24 05:00:40;;;;;;;;;;;;;;;;;;5006301;28;20527;-80
2023/12/24 05:03:07;;;;;;;15.02;8.55;;;;;;;;;;5012743;28;20368;-81
2023/12/24 05:05:32;;;;;;;;;;;;;;;;;;5005461;28;20132;-80
2023/12/24 05:07:57;;;;;;;16.67;9.20;;;;;;;;;;5011589;28;19999;-81
2023/12/24 05:10:23;;;;;;;16.33;8.88;;;;;;;;;;5004996;28;20520;-79
2023/12/24 05:12:49;;;;;;;15.77;9.45;;;;;;;;;;5011251;28;20168;-80
2023/12/24 05:15:15;;;;;;;15.07;8.70;;;;;;;;;;5006271;28;20080;-80
2023/12/24 05:17:40;;;;;;;;;;;;;;;;;;5007008;28;20411;-81
2023/12/24 05:20:06;;;;;;;15.60;8.52;;;;;;;;;;4994906;28;19917;-80
2023/12/24 05:22:31;;;;;;;14.75;9.32;;;;;;;;;;4990304;28;20385;-81
2023/12/24 05:24:57;;;;;;;19.20;9.55;;;;;;;;;;5001464;28;20030;-80
2023/12/24 05:27:22;;;;;;;;;;;;;;;;;;5006731;28;20037;-80
2023/12/24 05:29:48;;;;;;;14.82;9.25;;;;;;;;;;5006320;28;20360;-81
2023/12/24 05:32:13;;;;;;;16.90;10.00;;;;;;;;;;4994310;28;20022;-80
2023/12/24 05:34:39;;;;;;;16.45;10.38;;;;;;;;;;5011250;28;20112;-80
2023/12/24 05:37:04;;;;;;;18.30;10.25;;;;;;;;;;5009911;28;20509;-80
2023/12/24 05:39:29;;;;;;;15.93;9.32;;;;;;;;;;4981369;28;20038;-81
2023/12/24 05:41:55;;;;;;;;;;;;;;;;;;5010769;28;20416;-81
2023/12/24 05:44:20;;;;;;;16.75;9.40;;;;;;;;;;5004484;28;19917;-81
2023/12/24 05:46:55;;;;;;;14.70;9.35;;;;;;;;;;5010329;28;20033;-81
2023/12/24 05:49:20;;;;;;;16.27;9.52;;;;;;;;;;5014091;28;20088;-80
2023/12/24 05:51:46;;;;;;;;;;;;;;;;;;5004105;28;20037;-79
2023/12/24 05:54:11;;;;;;;17.48;9.48;;;;;;;;;;5004674;28;19944;-80
2023/12/24 05:56:37;;;;;;;17.42;10.38;;;;;;;;;;5009237;28;20064;-80
2023/12/24 05:59:02;;;;;;;17.40;9.55;;;;;;;;;;5004187;28;20554;-80
2023/12/24 06:01:28;;;;;;;14.85;9.68;;;;;;;;;;5004192;28;20030;-80
2023/12/24 06:03:53;;;;;;;;;;;;;;;;;;4998525;28;20153;-79
2023/12/24 06:06:18;;;;;;;16.83;9.50;;;;;;;;;;5010532;28;19909;-80
2023/12/24 06:08:44;;;;;;;15.80;9.80;;;;;;;;;;5006982;28;20048;-80
2023/12/24 06:11:16;;;;;;;14.85;9.82;;;;;;;;;;5026431;28;20057;-81
2023/12/24 06:13:42;;;;;;;15.23;9.45;;;;;;;;;;5008921;28;20025;-80
2023/12/24 06:16:07;;;;;;;;;;;;;;;;;;5009345;28;20029;-80
2023/12/24 06:18:33;;;;;;;17.17;10.30;;;;;;;;;;5026377;28;19936;-80
2023/12/24 06:20:58;;;;;;;;;;;;;;;;;;5017141;28;20132;-80
2023/12/24 06:23:23;;;;;;;15.50;9.15;;;;;;;;;;5034600;28;19913;-80
2023/12/24 06:25:49;;;;;;;21.10;10.88;;;;;;;;;;5017943;28;20440;-80
2023/12/24 06:28:14;;;;;;;17.90;10.02;;;;;;;;;;4997961;28;20037;-83
2023/12/24 06:30:40;;;;;;;15.82;9.65;;;;;;;;;;5014571;28;20030;-80
2023/12/24 06:33:05;;;;;;;;;;;;;;;;;;5031791;28;20034;-79
2023/12/24 06:35:31;;;;;;;17.77;9.35;;;;;;;;;;5034727;28;19913;-79
2023/12/24 06:37:57;;;;;;;;;;;;;;;;;;5015228;28;20029;-80
2023/12/24 06:40:22;;;;;;;14.88;9.57;;;;;;;;;;5009909;28;20362;-81
2023/12/24 06:42:48;;;;;;;16.77;10.63;;;;;;;;;;4997028;28;20052;-78
2023/12/24 06:45:14;;;;;;;15.18;8.82;;;;;;;;;;5011416;28;20121;-78
2023/12/24 06:47:39;;;;;;;15.52;8.93;;;;;;;;;;5013379;28;20906;-78
2023/12/24 06:50:04;;;;;;;;;;;;;;;;;;5016331;28;20040;-78
2023/12/24 06:52:30;;;;;;;17.45;9.57;;;;;;;;;;5016114;28;19935;-79
2023/12/24 06:54:56;;;;;;;15.57;8.57;;;;;;;;;;5031061;28;20037;-82
2023/12/24 06:57:21;;;;;;;14.05;8.20;;;;;;;;;;4997455;28;20041;-78
2023/12/24 06:59:46;;;;;;;14.80;8.55;;;;;;;;;;5013982;28;20032;-79
2023/12/24 07:02:12;;;;;;;;;;;;;;;;;;5033484;28;20037;-79
2023/12/24 07:04:38;;;;;;;13.70;8.48;;;;;;;;;;5032469;28;19963;-79
2023/12/24 07:07:03;;;;;;;13.23;8.20;;;;;;;;;;5024453;28;20527;-78
2023/12/24 07:09:28;;;;;;;;;;;;;;;;;;5013272;28;20523;-79
2023/12/24 07:11:54;;;;;;;13.30;7.88;;;;;;;;;;5025371;28;20379;-79
2023/12/24 07:14:19;;;;;;;16.65;8.48;;;;;;;;;;5023027;28;20036;-79
2023/12/24 07:16:45;;;;;;;12.00;7.93;;;;;;;;;;4999368;28;20096;-78
2023/12/24 07:19:11;;;;;;;12.77;8.05;;;;;;;;;;4990045;28;20076;-77
2023/12/24 07:21:36;;;;;;;13.63;8.70;;;;;;;;;;4991413;28;20083;-79
2023/12/24 07:24:03;;;;;;;12.13;8.30;;;;;;;;;;4998003;28;20024;-78
2023/12/24 07:26:28;;;;;;;14.93;8.55;;;;;;;;;;4992575;28;20388;-78
2023/12/24 07:28:54;;;;;;;15.05;9.07;;;;;;;;;;5009826;28;20021;-79
2023/12/24 07:31:19;;;;;;;18.25;9.23;;;;;;;;;;5014118;28;20044;-78
2023/12/24 07:33:45;;;;;;;13.55;8.10;;;;;;;;;;5032426;28;20033;-78
2023/12/24 07:36:11;;;;;;;14.98;8.75;;;;;;;;;;5032446;28;20041;-77
2023/12/24 07:38:36;;;;;;;;;;;;;;;;;;4986624;28;20032;-78
2023/12/24 07:41:03;;;;;;;15.10;8.43;;;;;;;;;;5022123;28;19917;-78
2023/12/24 07:43:29;;;;;;;14.68;8.25;;;;;;;;;;5027863;28;20049;-77
2023/12/24 07:45:54;;;;;;;15.70;8.77;;;;;;;;;;5024469;28;20073;-78
2023/12/24 07:48:20;;;;;;;14.45;8.68;;;;;;;;;;5017810;28;20029;-78
2023/12/24 07:50:45;;;;;;;;;;;;;;;;;;5007442;28;20040;-77
2023/12/24 07:53:10;;;;;;;15.02;8.65;;;;;;;;;;5018145;28;19910;-78
2023/12/24 07:55:36;;;;;;;12.98;8.30;;;;;;;;;;4987232;28;20393;-79
2023/12/24 07:58:01;;;;;;;16.65;8.38;;;;;;;;;;5014258;28;20026;-79
2023/12/24 08:00:27;;;;;;;14.65;8.95;;;;;;;;;;5004578;28;20030;-78
2023/12/24 08:02:52;;;;;;;15.18;8.85;;;;;;;;;;4993169;28;20022;-78
2023/12/24 08:05:18;;;;;;;;;;;;;;;;;;5006323;28;20033;-78
2023/12/24 08:07:43;;;;;;;14.60;8.23;;;;;;;;;;4994204;28;20600;-79
2023/12/24 08:10:09;;;;;;;16.83;9.30;;;;;;;;;;5005486;28;20073;-77
2023/12/24 08:12:34;;;;;;;13.57;8.63;;;;;;;;;;5000811;28;20037;-78
2023/12/24 08:15:00;;;;;;;15.65;9.35;;;;;;;;;;4997080;28;20378;-79
2023/12/24 08:17:25;;;;;;;;;;;;;;;;;;5002750;28;20068;-83
2023/12/24 08:19:51;;;;;;;17.45;9.18;;;;;;;;;;5031463;28;20016;-79
2023/12/24 08:22:16;;;;;;;15.55;9.15;;;;;;;;;;4989256;28;20024;-79
2023/12/24 08:24:42;;;;;;;16.65;9.55;;;;;;;;;;4998075;28;20034;-78
2023/12/24 08:27:07;;;;;;;18.33;10.57;;;;;;;;;;5029346;28;20400;-78
2023/12/24 08:29:34;;;;;;;17.70;10.75;;;;;;;;;;4999255;28;20041;-78
2023/12/24 08:31:59;;;;;;;16.13;9.40;;;;;;;;;;4995331;28;20033;-78
2023/12/24 08:34:25;;;;;;;16.77;9.68;;;;;;;;;;5013883;28;20064;-78
2023/12/24 08:36:50;;;;;;;16.15;9.43;;;;;;;;;;5005110;28;20036;-78
2023/12/24 08:39:16;;;;;;;17.85;9.05;;;;;;;;;;5031429;28;20021;-78
2023/12/24 08:41:41;;;;;;;18.42;9.55;;;;;;;;;;5022854;28;20037;-79
2023/12/24 08:44:06;;;;;;;15.98;9.52;;;;;;;;;;5017388;28;20079;-78
2023/12/24 08:46:32;;;;;;;18.17;10.05;;;;;;;;;;5010500;28;20056;-77
2023/12/24 08:48:57;;;;;;;;;;;;;;;;;;5010452;28;20458;-79
2023/12/24 08:51:23;;;;;;;19.55;9.98;;;;;;;;;;5026657;28;19913;-81
2023/12/24 08:53:48;;;;;;;21.52;9.38;;;;;;;;;;5028597;28;20052;-78
2023/12/24 08:56:14;;;;;;;14.95;9.32;;;;;;;;;;4993633;28;20041;-78
2023/12/24 08:58:40;;;;;;;17.13;9.88;;;;;;;;;;5026794;28;20468;-79
2023/12/24 09:01:05;;;;;;;16.08;8.93;;;;;;;;;;5009060;28;20037;-79
2023/12/24 09:03:30;;;;;;;14.75;9.60;;;;;;;;;;5027469;28;20037;-78
2023/12/24 09:05:56;;;;;;;16.77;9.30;;;;;;;;;;5030546;28;20029;-78
2023/12/24 09:08:21;;;;;;;14.80;8.18;;;;;;;;;;5009535;28;20030;-79
2023/12/24 09:10:47;;;;;;;14.77;8.60;;;;;;;;;;5007130;28;20049;-78
2023/12/24 09:13:12;;;;;;;15.10;9.70;;;;;;;;;;5002733;28;20493;-79
2023/12/24 09:15:38;;;;;;;13.68;8.55;;;;;;;;;;4987759;28;20040;-79
2023/12/24 09:18:03;;;;;;;;;;;;;;;;;;5022673;28;20400;-78
2023/12/24 09:20:29;;;;;;;13.65;8.45;;;;;;;;;;5030949;28;19913;-78
2023/12/24 09:22:54;;;;;;;15.40;8.38;;;;;;;;;;5003294;28;20034;-79
2023/12/24 09:25:19;;;;;;;14.40;8.50;;;;;;;;;;5022395;28;20112;-79
2023/12/24 09:27:45;;;;;;;;;;;;;;;;;;4994961;28;20113;-78
2023/12/24 09:30:11;;;;;;;12.48;7.78;;;;;;;;;;5029591;28;19909;-79
2023/12/24 09:32:36;;;;;;;13.52;8.23;;;;;;;;;;5012552;28;20112;-78
2023/12/24 09:35:01;;;;;;;14.10;8.35;;;;;;;;;;5027684;28;20028;-78
2023/12/24 09:37:27;;;;;;;;;;;;;;;;;;5001147;28;20038;-78
2023/12/24 09:39:52;;;;;;;17.38;9.13;;;;;;;;;;5029363;28;19909;-79
2023/12/24 09:42:18;;;;;;;;;;;;;;;;;;4982517;28;20041;-78
2023/12/24 09:44:44;;;;;;;15.18;8.77;;;;;;;;;;5022971;28;19909;-77
2023/12/24 09:47:09;;;;;;;;;;;;;;;;;;4989337;28;20057;-78
2023/12/24 09:49:34;;;;;;;14.43;8.77;;;;;;;;;;5029428;28;19913;-78
2023/12/24 09:52:00;;;;;;;13.40;8.02;;;;;;;;;;5024093;28;20038;-78
2023/12/24 09:54:25;;;;;;;12.30;7.53;;;;;;;;;;5008550;28;20087;-78
2023/12/24 09:56:51;;;;;;;12.23;7.90;;;;;;;;;;5015326;28;20115;-79
2023/12/24 09:59:16;;;;;;;;;;;;;;;;;;5017046;28;20115;-78
2023/12/24 10:01:43;;;;;;;13.25;7.85;;;;;;;;;;5033691;28;19917;-78
2023/12/24 10:04:08;;;;;;;15.43;8.27;;;;;;;;;;5012891;28;20024;-79
2023/12/24 10:06:34;;;;;;;11.77;7.85;;;;;;;;;;5028277;28;20034;-79
2023/12/24 10:09:00;;;;;;;;;;;;;;;;;;4983555;28;20475;-79
2023/12/24 10:11:25;;;;;;;13.27;7.53;;;;;;;;;;4992331;28;19960;-78
2023/12/24 10:14:00;;;;;;;11.85;7.32;;;;;;;;;;5001489;28;20053;-78
2023/12/24 10:16:26;;;;;;;11.45;7.85;;;;;;;;;;5016715;28;20080;-79
2023/12/24 10:18:52;;;;;;;15.38;7.93;;;;;;;;;;5028801;28;20052;-78
2023/12/24 10:21:18;;;;;;;11.77;7.50;;;;;;;;;;5016200;28;20140;-78
2023/12/24 10:23:43;;;;;;;18.23;8.05;;;;;;;;;;5016515;28;20365;-79
2023/12/24 10:26:11;;;;;;;;;;;;;;;;;;5017333;28;20041;-78
2023/12/24 10:28:52;;;;;;;11.48;7.72;;;;;;;;;;5029592;28;19936;-77
2023/12/24 10:31:17;;;;;;;11.90;7.40;;;;;;;;;;5013086;28;20448;-78
2023/12/24 10:33:43;;;;;;;13.20;7.97;;;;;;;;;;5014501;28;20029;-76
2023/12/24 10:36:08;;;;;;;;;;;;;;;;;;5023354;28;20119;-78
2023/12/24 10:38:37;;;;;;;13.32;7.25;;;;;;;;;;5010310;28;19916;-79
2023/12/24 10:41:03;;;;;;;11.50;6.90;;;;;;;;;;5009412;28;20037;-78
2023/12/24 10:43:28;;;;;;;12.40;7.43;;;;;;;;;;5027906;28;20036;-78
2023/12/24 10:45:53;;;;;;;;;;;;;;;;;;5009197;28;20488;-79
2023/12/24 10:48:19;;;;;;;10.68;7.43;;;;;;;;;;5010868;28;19913;-79
2023/12/24 10:50:44;;;;;;;;;;;;;;;;;;5016788;28;20033;-80
2023/12/24 10:53:10;;;;;;;12.68;8.27;;;;;;;;;;5034179;28;19909;-78
2023/12/24 10:55:35;;;;;;;;;;;;;;;;;;5016501;28;20049;-80
2023/12/24 10:58:04;;;;;;;12.80;7.32;;;;;;;;;;5008777;28;19915;-79
2023/12/24 11:00:29;;;;;;;10.32;6.90;;;;;;;;;;5027217;28;20113;-79
2023/12/24 11:02:55;;;;;;;13.13;7.75;;;;;;;;;;4999185;28;20461;-79
2023/12/24 11:05:21;;;;;;;;;;;;;;;;;;5032879;28;20033;-79
2023/12/24 11:07:47;;;;;;;10.32;7.05;;;;;;;;;;5031943;28;19909;-79
2023/12/24 11:10:31;;;;;;;12.63;8.55;;;;;;;;;;5015372;28;20056;-79
2023/12/24 11:12:57;;;;;;;21.30;9.35;;;;;;;;;;5015207;28;20044;-79
2023/12/24 11:15:22;;;;;;;;;;;;;;;;;;4999450;28;20476;-77
2023/12/24 11:17:47;;;;;;;13.35;8.05;;;;;;;;;;5032344;28;20341;-79
2023/12/24 11:20:25;;;;;;;15.02;8.43;;;;;;;;;;5015241;28;20044;-76
2023/12/24 11:23:06;;;;;;;14.07;8.77;;;;;;;;;;5032224;28;20447;-79
2023/12/24 11:25:35;;;;;;;14.65;8.60;;;;;;;;;;5013160;28;20069;-79
2023/12/24 11:28:00;;;;;;;15.40;7.97;;;;;;;;;;4997243;28;20021;-79
2023/12/24 11:30:26;;;;;;;13.13;7.38;;;;;;;;;;5031243;28;20039;-79
2023/12/24 11:32:51;;;;;;;13.98;8.05;;;;;;;;;;5015521;28;20029;-79
2023/12/24 11:35:36;;;;;;;13.27;7.78;;;;;;;;;;5029835;28;20037;-78
2023/12/24 11:38:21;;;;;;;13.15;7.95;;;;;;;;;;5009812;28;20033;-78
2023/12/24 11:40:47;;;;;;;10.15;7.13;;;;;;;;;;5028554;28;20042;-78
2023/12/24 11:43:13;;;;;;;;;;;;;;;;;;5003240;28;20083;-76
2023/12/24 11:45:38;;;;;;;10.57;7.40;;;;;;;;;;5026138;28;19931;-77
2023/12/24 11:48:04;;;;;;;;;;;;;;;;;;5010001;28;20029;-78
2023/12/24 11:50:29;;;;;;;13.90;7.95;;;;;;;;;;5031468;28;19951;-78
2023/12/24 11:52:55;;;;;;;16.08;8.07;;;;;;;;;;5015107;28;20037;-78
2023/12/24 11:55:20;;;;;;;13.93;7.38;;;;;;;;;;5014914;28;20036;-79
2023/12/24 11:57:46;;;;;;;;;;;;;;;;;;5032302;28;20037;-78
2023/12/24 12:00:12;;;;;;;12.43;7.93;;;;;;;;;;5030157;28;19936;-80
2023/12/24 12:02:39;;;;;;;11.98;7.50;;;;;;;;;;5030706;28;20446;-79
2023/12/24 12:05:04;;;;;;;;;;;;;;;;;;4995879;28;20025;-78
2023/12/24 12:07:29;;;;;;;14.10;7.78;;;;;;;;;;5031570;28;19909;-79
2023/12/24 12:09:55;;;;;;;15.88;8.60;;;;;;;;;;4997657;28;20423;-78
2023/12/24 12:12:20;;;;;;;16.27;9.15;;;;;;;;;;5014223;28;20041;-79
2023/12/24 12:14:46;;;;;;;;;;;;;;;;;;5030666;28;20040;-79
2023/12/24 12:17:11;;;;;;;11.00;7.18;;;;;;;;;;5030946;28;20383;-78
2023/12/24 12:19:38;;;;;;;11.05;7.03;;;;;;;;;;5013029;28;20040;-78
2023/12/24 12:22:04;;;;;;;11.73;7.72;;;;;;;;;;4997447;28;20091;-79
2023/12/24 12:24:29;;;;;;;10.13;7.13;;;;;;;;;;5029878;28;20037;-79
2023/12/24 12:26:55;;;;;;;11.40;6.63;;;;;;;;;;4995008;28;20048;-80
2023/12/24 12:29:20;;;;;;;9.75;6.88;;;;;;;;;;5030409;28;20044;-79
2023/12/24 12:31:46;;;;;;;15.27;7.60;;;;;;;;;;4995301;28;20029;-80
2023/12/24 12:34:11;;;;;;;11.10;7.25;;;;;;;;;;5003954;28;20036;-78
2023/12/24 12:36:36;;;;;;;;;;;;;;;;;;5001048;28;20037;-79
2023/12/24 12:39:03;;;;;;;11.95;7.05;;;;;;;;;;5013214;28;19913;-78
2023/12/24 12:41:28;;;;;;;;;;;;;;;;;;5013576;28;20048;-78
2023/12/24 12:43:54;;;;;;;14.75;6.70;;;;;;;;;;5003489;28;19917;-78
2023/12/24 12:46:21;;;;;;;10.13;6.68;;;;;;;;;;5016779;28;20026;-78
2023/12/24 12:48:47;;;;;;;10.48;6.38;;;;;;;;;;4994470;28;20037;-78
2023/12/24 12:51:12;;;;;;;9.80;6.97;;;;;;;;;;5007814;28;20029;-79
2023/12/24 12:53:38;;;;;;;12.23;7.00;;;;;;;;;;5003971;28;20056;-78
2023/12/24 12:56:03;;;;;;;;;;;;;;;;;;5019054;28;20052;-79
2023/12/24 12:58:29;;;;;;;12.50;6.78;;;;;;;;;;5029994;28;20298;-78
2023/12/24 13:00:54;;;;;;;;;;;;;;;;;;5019231;28;20060;-79
2023/12/24 13:03:19;;;;;;;13.15;7.50;;;;;;;;;;4997080;28;19920;-79
2023/12/24 13:05:45;;;;;;;12.63;6.90;;;;;;;;;;5026762;28;20033;-79
2023/12/24 13:08:14;;;;;;;13.70;7.78;;;;;;;;;;5009232;28;20026;-78
2023/12/24 13:10:40;;;;;;;13.80;7.43;;;;;;;;;;5003951;28;20065;-79
2023/12/24 13:13:07;;;;;;;;;;;;;;;;;;4990500;28;20034;-78
2023/12/24 13:15:32;;;;;;;11.32;7.15;;;;;;;;;;4989713;28;19917;-79
2023/12/24 13:18:17;;;;;;;12.20;7.55;;;;;;;;;;5009563;28;20042;-79
2023/12/24 13:20:52;;;;;;;11.65;7.60;;;;;;;;;;5004243;28;20046;-79
2023/12/24 13:23:21;;;;;;;13.35;7.82;;;;;;;;;;5005780;28;20033;-78
2023/12/24 13:25:47;;;;;;;14.95;8.45;;;;;;;;;;4966971;28;20030;-77
2023/12/24 13:28:12;;;;;;;;;;;;;;;;;;5011263;28;20034;-78
2023/12/24 13:30:38;;;;;;;13.43;7.90;;;;;;;;;;5007002;28;19951;-79
2023/12/24 13:33:03;;;;;;;;;;;;;;;;;;5017004;28;20452;-77
2023/12/24 13:35:32;;;;;;;13.68;8.32;;;;;;;;;;5010530;28;19910;-78
2023/12/24 13:37:57;;;;;;;12.05;8.30;;;;;;;;;;4993247;28;20033;-78
2023/12/24 13:40:23;;;;;;;;;;;;;;;;;;5010185;28;20519;-78
2023/12/24 13:42:48;;;;;;;13.95;7.95;;;;;;;;;;5000401;28;19920;-79
2023/12/24 13:45:14;;;;;;;;;;;;;;;;;;5009977;28;20017;-79
2023/12/24 13:47:39;;;;;;;13.20;8.30;;;;;;;;;;5010119;28;20707;-79
2023/12/24 13:50:05;;;;;;;12.05;8.02;;;;;;;;;;5007255;28;20026;-80
2023/12/24 13:52:31;;;;;;;15.88;8.85;;;;;;;;;;5010045;28;20080;-79
2023/12/24 13:54:57;;;;;;;;;;;;;;;;;;4977208;28;20044;-78
2023/12/24 13:57:22;;;;;;;12.35;7.82;;;;;;;;;;5009522;28;19920;-78
2023/12/24 13:59:48;;;;;;;;;;;;;;;;;;5008767;28;20029;-78
2023/12/24 14:02:13;;;;;;;13.30;7.78;;;;;;;;;;5007409;28;19917;-80
2023/12/24 14:04:38;;;;;;;14.85;8.40;;;;;;;;;;4985114;28;20397;-79
2023/12/24 14:07:04;;;;;;;;;;;;;;;;;;4991205;28;20038;-78
2023/12/24 14:09:30;;;;;;;11.75;7.80;;;;;;;;;;4998520;28;20369;-78
2023/12/24 14:11:55;;;;;;;;;;;;;;;;;;4997894;28;20065;-79
2023/12/24 14:14:21;;;;;;;14.18;7.53;;;;;;;;;;4997283;28;19914;-79
2023/12/24 14:16:48;;;;;;;12.65;8.18;;;;;;;;;;4996791;28;20042;-79
2023/12/24 14:19:13;;;;;;;11.43;7.05;;;;;;;;;;4972905;28;20030;-79
2023/12/24 14:21:39;;;;;;;;;;;;;;;;;;4996370;28;20033;-77
2023/12/24 14:24:04;;;;;;;11.23;6.90;;;;;;;;;;4994085;28;20283;-79
2023/12/24 14:26:30;;;;;;;9.57;6.95;;;;;;;;;;4992311;28;20031;-78
2023/12/24 14:28:55;;;;;;;11.18;6.55;;;;;;;;;;4990671;28;20121;-78
2023/12/24 14:31:21;;;;;;;12.00;7.07;;;;;;;;;;4990641;28;20054;-79
2023/12/24 14:33:47;;;;;;;11.98;7.53;;;;;;;;;;4991790;28;20392;-78
2023/12/24 14:36:13;;;;;;;10.85;7.20;;;;;;;;;;4991347;28;20037;-79
2023/12/24 14:38:41;;;;;;;9.48;7.03;;;;;;;;;;4975305;28;20027;-80
2023/12/24 14:41:07;;;;;;;11.85;7.10;;;;;;;;;;4967327;28;20038;-80
2023/12/24 14:43:35;;;;;;;13.32;7.70;;;;;;;;;;4980764;28;20555;-79
2023/12/24 14:46:00;;;;;;;10.98;7.20;;;;;;;;;;4994549;28;20038;-79
2023/12/24 14:48:26;;;;;;;11.15;7.00;;;;;;;;;;4997915;28;20034;-78